createdAt,value
2023-05-11T00:03:24.053Z,34.65
2023-05-11T00:08:27.290Z,34.88
2023-05-11T00:13:30.532Z,34.55
2023-05-11T00:18:34.856Z,34.75
2023-05-11T00:23:37.818Z,34.78
2023-05-11T00:28:40.788Z,34.53
2023-05-11T00:33:45.024Z,34.80
2023-05-11T00:38:47.953Z,34.65
2023-05-11T00:43:50.929Z,35.00
2023-05-11T00:48:55.337Z,34.53
2023-05-11T00:53:59.195Z,34.72
2023-05-11T00:59:02.258Z,34.88
2023-05-11T01:04:07.007Z,34.72
2023-05-11T01:09:15.854Z,34.95
2023-05-11T01:14:23.264Z,34.55
2023-05-11T01:19:41.632Z,34.85
2023-05-11T01:24:56.905Z,34.97
2023-05-11T01:30:38.658Z,34.70
2023-05-11T01:35:49.219Z,34.75
2023-05-11T01:40:57.265Z,34.65
2023-05-11T01:46:02.747Z,34.75
2023-05-11T01:51:08.632Z,34.28
2023-05-11T01:56:13.000Z,34.53
2023-05-11T02:01:18.831Z,34.63
2023-05-11T02:06:25.026Z,34.33
2023-05-11T02:11:30.111Z,34.80
2023-05-11T02:16:34.948Z,34.72
2023-05-11T02:21:42.357Z,34.83
2023-05-11T02:26:46.261Z,35.20
2023-05-11T02:31:53.780Z,35.00
2023-05-11T02:37:01.977Z,34.65
2023-05-11T02:42:14.786Z,34.88
2023-05-11T02:47:20.340Z,34.95
2023-05-11T02:52:26.607Z,34.88
2023-05-11T02:57:30.375Z,34.42
2023-05-11T03:02:38.429Z,34.70
2023-05-11T03:07:44.132Z,35.50
2023-05-11T03:12:47.970Z,34.85
2023-05-11T03:17:53.262Z,35.35
2023-05-11T03:22:58.867Z,34.78
2023-05-11T03:28:07.127Z,35.05
2023-05-11T03:33:11.334Z,34.38
2023-05-11T03:38:17.044Z,34.78
2023-05-11T03:43:22.540Z,34.55
2023-05-11T03:48:27.705Z,35.08
2023-05-11T03:53:32.397Z,34.95
2023-05-11T03:58:40.200Z,34.63
2023-05-11T04:03:50.467Z,34.55
2023-05-11T04:08:55.274Z,34.40
2023-05-11T04:13:58.254Z,34.80
2023-05-11T04:19:10.481Z,34.85
2023-05-11T04:24:14.754Z,35.13
2023-05-11T04:29:17.624Z,34.78
2023-05-11T04:34:22.572Z,34.58
2023-05-11T04:39:27.447Z,34.95
2023-05-11T04:44:30.509Z,35.20
2023-05-11T04:49:35.823Z,35.53
2023-05-11T04:54:40.496Z,35.97
2023-05-11T04:59:43.545Z,35.65
2023-05-11T05:04:47.395Z,34.90
2023-05-11T05:09:52.020Z,35.47
2023-05-11T05:14:54.936Z,35.70
2023-05-11T05:19:58.981Z,36.15
2023-05-11T05:25:03.782Z,36.00
2023-05-11T05:30:08.776Z,35.65
2023-05-11T05:35:12.025Z,35.05
2023-05-11T05:40:17.600Z,35.45
2023-05-11T05:45:24.140Z,36.03
2023-05-11T05:50:27.845Z,35.22
2023-05-11T05:55:32.144Z,35.63
2023-05-11T06:00:38.011Z,35.35
2023-05-11T06:05:45.120Z,35.70
2023-05-11T06:10:49.766Z,35.40
2023-05-11T06:15:53.592Z,36.00
2023-05-11T06:21:04.955Z,35.88
2023-05-11T06:26:10.266Z,35.78
2023-05-11T06:31:13.559Z,35.58
2023-05-11T06:36:17.868Z,35.72
2023-05-11T06:41:23.148Z,36.13
2023-05-11T06:46:27.819Z,35.50
2023-05-11T06:51:30.782Z,36.03
2023-05-11T06:56:34.992Z,35.72
2023-05-11T07:01:38.706Z,36.08
2023-05-11T07:06:41.956Z,35.70
2023-05-11T07:11:46.184Z,35.90
2023-05-11T07:16:52.809Z,35.22
2023-05-11T07:21:55.914Z,35.47
2023-05-11T07:27:00.954Z,35.47
2023-05-11T07:32:03.990Z,35.60
2023-05-11T07:37:08.322Z,35.85
2023-05-11T07:42:12.766Z,35.60
2023-05-11T07:47:16.250Z,35.80
2023-05-11T07:52:19.140Z,35.78
2023-05-11T07:57:23.337Z,35.75
2023-05-11T08:02:26.439Z,36.08
2023-05-11T08:07:29.444Z,35.83
2023-05-11T08:12:33.670Z,35.55
2023-05-11T08:17:37.364Z,36.60
2023-05-11T08:22:40.256Z,36.33
2023-05-11T08:27:44.473Z,37.10
2023-05-11T08:32:58.077Z,35.53
2023-05-11T08:38:01.705Z,36.53
2023-05-11T08:43:07.200Z,36.15
2023-05-11T08:48:10.340Z,36.22
2023-05-11T08:53:13.532Z,36.30
2023-05-11T08:58:22.146Z,36.33
2023-05-11T09:03:25.124Z,36.05
2023-05-11T09:08:31.441Z,36.47
2023-05-11T09:13:35.755Z,36.60
2023-05-11T09:18:48.162Z,36.72
2023-05-11T09:23:52.110Z,36.47
2023-05-11T09:29:02.767Z,36.67
2023-05-11T09:34:11.468Z,36.38
2023-05-11T09:39:16.666Z,37.03
2023-05-11T09:44:21.300Z,37.22
2023-05-11T09:49:30.457Z,36.65
2023-05-11T09:54:43.601Z,37.53
2023-05-11T09:59:47.788Z,37.42
2023-05-11T10:04:51.768Z,38.22
2023-05-11T10:09:56.305Z,37.88
2023-05-11T10:15:03.717Z,38.40
2023-05-11T10:20:08.323Z,38.92
2023-05-11T10:25:11.977Z,38.40
2023-05-11T10:30:17.514Z,38.05
2023-05-11T10:35:21.200Z,39.00
2023-05-11T10:40:24.287Z,38.60
2023-05-11T10:45:32.896Z,38.70
2023-05-11T10:50:55.864Z,37.75
2023-05-11T10:56:12.924Z,38.42
2023-05-11T11:01:39.531Z,38.10
2023-05-11T11:06:43.678Z,38.30
2023-05-11T11:11:48.058Z,39.17
2023-05-11T11:17:27.433Z,38.55
2023-05-11T11:22:49.961Z,38.67
2023-05-11T11:27:59.881Z,39.00
2023-05-11T11:33:35.425Z,37.78
2023-05-11T11:38:58.984Z,39.13
2023-05-11T11:44:02.075Z,38.38
2023-05-11T11:49:10.049Z,37.83
2023-05-11T11:54:12.975Z,37.90
2023-05-11T11:59:16.594Z,37.25
2023-05-11T12:04:41.958Z,37.70
2023-05-11T12:09:47.124Z,37.83
2023-05-11T12:14:50.150Z,37.13
2023-05-11T12:19:54.679Z,37.40
2023-05-11T12:25:00.329Z,37.25
2023-05-11T12:30:03.498Z,36.75
2023-05-11T12:35:08.642Z,36.95
2023-05-11T12:40:13.317Z,37.10
2023-05-11T12:45:17.230Z,37.45
2023-05-11T12:50:22.781Z,38.05
2023-05-11T12:55:29.684Z,37.13
2023-05-11T13:00:32.664Z,37.10
2023-05-11T13:05:36.886Z,36.97
2023-05-11T13:10:39.767Z,37.03
2023-05-11T13:15:52.686Z,37.08
2023-05-11T13:21:07.588Z,36.38
2023-05-11T13:26:10.495Z,36.83
2023-05-11T13:31:13.571Z,37.00
2023-05-11T13:36:17.862Z,37.13
2023-05-11T13:41:20.985Z,37.85
2023-05-11T13:46:24.066Z,36.70
2023-05-11T13:51:28.568Z,36.95
2023-05-11T13:56:32.546Z,37.35
2023-05-11T14:01:35.564Z,36.47
2023-05-11T14:06:40.119Z,36.95
2023-05-11T14:11:43.386Z,37.10
2023-05-11T14:16:46.368Z,36.45
2023-05-11T14:21:50.587Z,37.13
2023-05-11T14:26:53.542Z,36.53
2023-05-11T14:31:56.426Z,37.08
2023-05-11T14:37:01.802Z,36.95
2023-05-11T14:42:05.192Z,36.33
2023-05-11T14:47:09.057Z,36.95
2023-05-11T14:52:13.262Z,37.10
2023-05-11T14:57:17.426Z,36.65
2023-05-11T15:02:32.568Z,36.90
2023-05-11T15:07:38.587Z,37.42
2023-05-11T15:12:43.519Z,37.13
2023-05-11T15:17:46.529Z,37.83
2023-05-11T15:22:50.987Z,36.53
2023-05-11T15:27:53.943Z,37.72
2023-05-11T15:32:56.841Z,36.20
2023-05-11T15:38:01.086Z,36.67
2023-05-11T15:43:03.987Z,36.35
2023-05-11T15:48:07.457Z,36.97
2023-05-11T15:53:11.734Z,36.90
2023-05-11T15:58:14.677Z,36.55
2023-05-11T16:03:17.797Z,36.75
2023-05-11T16:08:22.281Z,36.40
2023-05-11T16:13:25.139Z,36.88
2023-05-11T16:18:28.559Z,36.65
2023-05-11T16:23:33.132Z,36.42
2023-05-11T16:28:36.180Z,36.40
2023-05-11T16:33:39.052Z,36.67
2023-05-11T16:38:43.357Z,36.55
2023-05-11T16:43:46.448Z,36.45
2023-05-11T16:48:49.322Z,36.55
2023-05-11T16:53:54.594Z,36.60
2023-05-11T16:58:57.854Z,36.55
2023-05-11T17:04:01.851Z,36.72
2023-05-11T17:09:06.181Z,36.65
2023-05-11T17:14:09.088Z,36.88
2023-05-11T17:19:12.008Z,36.78
2023-05-11T17:24:16.391Z,37.20
2023-05-11T17:29:19.309Z,37.17
2023-05-11T17:34:25.803Z,37.45
2023-05-11T17:39:32.532Z,36.85
2023-05-11T17:44:36.561Z,37.15
2023-05-11T17:49:39.434Z,37.05
2023-05-11T17:54:43.735Z,37.20
2023-05-11T17:59:47.176Z,38.15
2023-05-11T18:04:50.323Z,37.55
2023-05-11T18:09:54.624Z,37.28
2023-05-11T18:14:57.669Z,37.28
2023-05-11T18:20:00.614Z,37.88
2023-05-11T18:25:05.373Z,37.42
2023-05-11T18:30:09.385Z,37.22
2023-05-11T18:35:12.311Z,36.78
2023-05-11T18:40:16.960Z,36.70
2023-05-11T18:45:22.580Z,36.55
2023-05-11T18:50:27.304Z,36.97
2023-05-11T18:55:41.098Z,36.65
2023-05-11T19:00:55.610Z,36.88
2023-05-11T19:06:01.273Z,36.55
2023-05-11T19:11:23.793Z,36.75
2023-05-11T19:16:28.111Z,37.22
2023-05-11T19:21:31.505Z,37.40
2023-05-11T19:26:38.217Z,38.35
2023-05-11T19:31:41.135Z,37.22
2023-05-11T19:36:44.145Z,37.03
2023-05-11T19:41:48.435Z,37.65
2023-05-11T19:46:51.326Z,36.65
2023-05-11T19:51:54.243Z,36.97
2023-05-11T19:57:00.262Z,37.22
2023-05-11T20:02:04.245Z,37.17
2023-05-11T20:07:09.259Z,37.10
2023-05-11T20:12:13.589Z,37.05
2023-05-11T20:17:16.498Z,37.53
2023-05-11T20:22:19.382Z,37.50
2023-05-11T20:27:24.413Z,37.60
2023-05-11T20:32:27.331Z,37.63
2023-05-11T20:37:30.191Z,36.50
2023-05-11T20:42:34.454Z,36.92
2023-05-11T20:47:37.319Z,37.03
2023-05-11T20:52:40.288Z,36.70
2023-05-11T20:57:44.516Z,37.33
2023-05-11T21:02:55.466Z,36.45
2023-05-11T21:07:58.702Z,36.47
2023-05-11T21:13:03.819Z,36.40
2023-05-11T21:18:06.832Z,36.63
2023-05-11T21:23:09.827Z,36.67
2023-05-11T21:28:14.065Z,36.47
2023-05-11T21:33:17.013Z,36.40
2023-05-11T21:38:19.881Z,36.47
2023-05-11T21:43:24.123Z,36.38
2023-05-11T21:48:27.383Z,36.83
2023-05-11T21:53:30.352Z,37.00
2023-05-11T21:58:34.593Z,37.58
2023-05-11T22:03:37.539Z,36.83
2023-05-11T22:08:40.492Z,37.00
2023-05-11T22:13:44.735Z,36.65
2023-05-11T22:18:47.737Z,36.15
2023-05-11T22:23:50.725Z,36.35
2023-05-11T22:28:54.947Z,36.20
2023-05-11T22:33:57.953Z,36.53
2023-05-11T22:39:00.807Z,36.33
2023-05-11T22:44:05.295Z,35.92
2023-05-11T22:49:08.318Z,35.92
2023-05-11T22:54:11.234Z,36.17
2023-05-11T22:59:15.575Z,36.22
2023-05-11T23:04:18.485Z,36.80
2023-05-11T23:09:21.438Z,36.10
2023-05-11T23:14:25.840Z,36.47
2023-05-11T23:19:32.084Z,36.60
2023-05-11T23:24:35.026Z,35.88
2023-05-11T23:29:39.325Z,36.10
2023-05-11T23:34:42.270Z,36.15
2023-05-11T23:39:45.183Z,36.30
2023-05-11T23:44:49.402Z,36.63
2023-05-11T23:49:53.286Z,36.67
2023-05-11T23:54:56.204Z,36.65
